sensor_id;sensor_type;location;lat;lon;timestamp;P1;durP1;ratioP1;P2;durP2;ratioP2
11342;SDS011;5726;42.160;24.746;2022-10-23T00:01:11;32.67;;;21.23;;
11342;SDS011;5726;42.160;24.746;2022-10-23T00:03:38;37.53;;;21.97;;
11342;SDS011;5726;42.160;24.746;2022-10-23T00:06:04;36.93;;;21.20;;
11342;SDS011;5726;42.160;24.746;2022-10-23T00:08:29;38.23;;;21.63;;
11342;SDS011;5726;42.160;24.746;2022-10-23T00:10:55;38.60;;;22.17;;
11342;SDS011;5726;42.160;24.746;2022-10-23T00:13:20;38.70;;;20.70;;
11342;SDS011;5726;42.160;24.746;2022-10-23T00:15:45;34.83;;;20.70;;
11342;SDS011;5726;42.160;24.746;2022-10-23T00:18:11;37.03;;;20.83;;
11342;SDS011;5726;42.160;24.746;2022-10-23T00:20:36;44.10;;;22.20;;
11342;SDS011;5726;42.160;24.746;2022-10-23T00:23:02;33.00;;;20.43;;
11342;SDS011;5726;42.160;24.746;2022-10-23T00:25:27;35.63;;;21.57;;
11342;SDS011;5726;42.160;24.746;2022-10-23T00:27:53;31.30;;;20.20;;
11342;SDS011;5726;42.160;24.746;2022-10-23T00:30:18;33.43;;;20.23;;
11342;SDS011;5726;42.160;24.746;2022-10-23T00:32:44;32.70;;;20.63;;
11342;SDS011;5726;42.160;24.746;2022-10-23T00:35:09;36.67;;;20.80;;
11342;SDS011;5726;42.160;24.746;2022-10-23T00:37:35;31.13;;;20.60;;
11342;SDS011;5726;42.160;24.746;2022-10-23T00:40:00;38.93;;;22.83;;
11342;SDS011;5726;42.160;24.746;2022-10-23T00:42:25;39.77;;;22.07;;
11342;SDS011;5726;42.160;24.746;2022-10-23T00:47:16;31.87;;;20.07;;
11342;SDS011;5726;42.160;24.746;2022-10-23T00:49:42;31.50;;;19.77;;
11342;SDS011;5726;42.160;24.746;2022-10-23T00:52:08;37.23;;;20.00;;
11342;SDS011;5726;42.160;24.746;2022-10-23T00:54:37;37.47;;;20.17;;
11342;SDS011;5726;42.160;24.746;2022-10-23T00:57:06;29.63;;;17.93;;
11342;SDS011;5726;42.160;24.746;2022-10-23T00:59:35;33.27;;;18.00;;
11342;SDS011;5726;42.160;24.746;2022-10-23T01:02:01;33.07;;;19.17;;
11342;SDS011;5726;42.160;24.746;2022-10-23T01:04:27;30.80;;;18.13;;
11342;SDS011;5726;42.160;24.746;2022-10-23T01:07:04;32.00;;;17.97;;
11342;SDS011;5726;42.160;24.746;2022-10-23T01:12:33;25.87;;;17.40;;
11342;SDS011;5726;42.160;24.746;2022-10-23T01:17:57;29.93;;;16.53;;
11342;SDS011;5726;42.160;24.746;2022-10-23T01:31:46;27.83;;;17.03;;
11342;SDS011;5726;42.160;24.746;2022-10-23T01:34:21;26.83;;;16.47;;
11342;SDS011;5726;42.160;24.746;2022-10-23T01:36:53;23.07;;;16.90;;
11342;SDS011;5726;42.160;24.746;2022-10-23T01:39:21;22.07;;;15.87;;
11342;SDS011;5726;42.160;24.746;2022-10-23T01:41:55;27.03;;;17.00;;
11342;SDS011;5726;42.160;24.746;2022-10-23T01:44:33;25.20;;;15.53;;
11342;SDS011;5726;42.160;24.746;2022-10-23T01:47:06;27.97;;;16.30;;
11342;SDS011;5726;42.160;24.746;2022-10-23T01:49:33;23.83;;;15.70;;
11342;SDS011;5726;42.160;24.746;2022-10-23T01:52:04;23.97;;;15.67;;
11342;SDS011;5726;42.160;24.746;2022-10-23T01:54:33;25.30;;;16.37;;
11342;SDS011;5726;42.160;24.746;2022-10-23T01:57:02;24.57;;;15.90;;
11342;SDS011;5726;42.160;24.746;2022-10-23T01:59:31;23.97;;;15.50;;
11342;SDS011;5726;42.160;24.746;2022-10-23T02:02:01;26.30;;;16.37;;
11342;SDS011;5726;42.160;24.746;2022-10-23T02:04:39;23.20;;;15.40;;
11342;SDS011;5726;42.160;24.746;2022-10-23T02:07:15;28.30;;;16.20;;
11342;SDS011;5726;42.160;24.746;2022-10-23T02:09:40;23.90;;;14.83;;
11342;SDS011;5726;42.160;24.746;2022-10-23T02:12:12;25.13;;;15.17;;
11342;SDS011;5726;42.160;24.746;2022-10-23T02:17:25;21.47;;;15.77;;
11342;SDS011;5726;42.160;24.746;2022-10-23T02:23:45;28.23;;;16.23;;
11342;SDS011;5726;42.160;24.746;2022-10-23T02:26:35;26.57;;;16.30;;
11342;SDS011;5726;42.160;24.746;2022-10-23T02:29:12;23.57;;;15.57;;
11342;SDS011;5726;42.160;24.746;2022-10-23T02:31:42;25.93;;;15.63;;
11342;SDS011;5726;42.160;24.746;2022-10-23T02:34:07;23.77;;;16.50;;
11342;SDS011;5726;42.160;24.746;2022-10-23T02:36:32;24.30;;;15.90;;
11342;SDS011;5726;42.160;24.746;2022-10-23T02:38:58;28.50;;;16.60;;
11342;SDS011;5726;42.160;24.746;2022-10-23T02:41:35;25.30;;;17.33;;
11342;SDS011;5726;42.160;24.746;2022-10-23T03:00:58;31.53;;;20.63;;
11342;SDS011;5726;42.160;24.746;2022-10-23T03:03:32;33.43;;;22.90;;
11342;SDS011;5726;42.160;24.746;2022-10-23T03:06:02;38.50;;;24.83;;
11342;SDS011;5726;42.160;24.746;2022-10-23T03:08:28;44.47;;;26.83;;
11342;SDS011;5726;42.160;24.746;2022-10-23T03:10:54;43.67;;;27.80;;
11342;SDS011;5726;42.160;24.746;2022-10-23T03:13:19;45.33;;;26.63;;
11342;SDS011;5726;42.160;24.746;2022-10-23T03:15:44;41.87;;;26.23;;
11342;SDS011;5726;42.160;24.746;2022-10-23T03:18:10;37.43;;;24.30;;
11342;SDS011;5726;42.160;24.746;2022-10-23T03:20:35;35.23;;;23.60;;
11342;SDS011;5726;42.160;24.746;2022-10-23T03:23:01;34.47;;;20.83;;
11342;SDS011;5726;42.160;24.746;2022-10-23T03:25:26;26.33;;;17.13;;
11342;SDS011;5726;42.160;24.746;2022-10-23T03:27:52;28.20;;;17.40;;
11342;SDS011;5726;42.160;24.746;2022-10-23T03:30:18;28.63;;;17.40;;
11342;SDS011;5726;42.160;24.746;2022-10-23T03:32:43;27.33;;;17.07;;
11342;SDS011;5726;42.160;24.746;2022-10-23T03:35:09;26.50;;;17.07;;
11342;SDS011;5726;42.160;24.746;2022-10-23T03:37:34;28.27;;;15.00;;
11342;SDS011;5726;42.160;24.746;2022-10-23T03:39:59;27.30;;;15.50;;
11342;SDS011;5726;42.160;24.746;2022-10-23T03:42:25;30.20;;;15.03;;
11342;SDS011;5726;42.160;24.746;2022-10-23T03:44:50;25.90;;;14.87;;
11342;SDS011;5726;42.160;24.746;2022-10-23T03:47:16;21.70;;;12.67;;
11342;SDS011;5726;42.160;24.746;2022-10-23T03:49:42;22.73;;;12.80;;
11342;SDS011;5726;42.160;24.746;2022-10-23T03:52:07;23.53;;;12.33;;
11342;SDS011;5726;42.160;24.746;2022-10-23T03:54:33;21.20;;;13.27;;
11342;SDS011;5726;42.160;24.746;2022-10-23T03:56:58;22.33;;;12.33;;
11342;SDS011;5726;42.160;24.746;2022-10-23T03:59:24;19.97;;;13.57;;
11342;SDS011;5726;42.160;24.746;2022-10-23T04:01:50;21.93;;;12.80;;
11342;SDS011;5726;42.160;24.746;2022-10-23T04:04:16;21.40;;;13.43;;
11342;SDS011;5726;42.160;24.746;2022-10-23T04:06:42;19.73;;;13.03;;
11342;SDS011;5726;42.160;24.746;2022-10-23T04:09:07;21.30;;;12.23;;
11342;SDS011;5726;42.160;24.746;2022-10-23T04:11:33;18.67;;;11.80;;
11342;SDS011;5726;42.160;24.746;2022-10-23T04:13:58;20.13;;;12.70;;
11342;SDS011;5726;42.160;24.746;2022-10-23T04:16:24;22.33;;;12.53;;
11342;SDS011;5726;42.160;24.746;2022-10-23T04:18:49;19.77;;;11.73;;
11342;SDS011;5726;42.160;24.746;2022-10-23T04:21:15;24.33;;;12.03;;
11342;SDS011;5726;42.160;24.746;2022-10-23T04:23:41;16.40;;;11.40;;
11342;SDS011;5726;42.160;24.746;2022-10-23T04:26:06;19.33;;;12.93;;
11342;SDS011;5726;42.160;24.746;2022-10-23T04:28:32;20.83;;;13.23;;
11342;SDS011;5726;42.160;24.746;2022-10-23T04:30:57;21.73;;;13.70;;
11342;SDS011;5726;42.160;24.746;2022-10-23T04:33:23;32.33;;;14.33;;
11342;SDS011;5726;42.160;24.746;2022-10-23T04:35:49;29.80;;;19.77;;
11342;SDS011;5726;42.160;24.746;2022-10-23T04:38:14;64.53;;;42.47;;
11342;SDS011;5726;42.160;24.746;2022-10-23T04:40:40;23.57;;;13.93;;
11342;SDS011;5726;42.160;24.746;2022-10-23T04:43:05;16.27;;;9.73;;
11342;SDS011;5726;42.160;24.746;2022-10-23T04:45:30;16.93;;;9.97;;
11342;SDS011;5726;42.160;24.746;2022-10-23T04:47:56;15.47;;;8.97;;
11342;SDS011;5726;42.160;24.746;2022-10-23T04:50:21;17.93;;;8.53;;
11342;SDS011;5726;42.160;24.746;2022-10-23T04:52:47;18.60;;;8.90;;
11342;SDS011;5726;42.160;24.746;2022-10-23T04:55:13;11.50;;;7.67;;
11342;SDS011;5726;42.160;24.746;2022-10-23T04:57:39;12.87;;;7.63;;
11342;SDS011;5726;42.160;24.746;2022-10-23T05:00:06;14.73;;;7.60;;
11342;SDS011;5726;42.160;24.746;2022-10-23T05:02:33;13.93;;;7.17;;
11342;SDS011;5726;42.160;24.746;2022-10-23T05:04:59;14.97;;;7.87;;
11342;SDS011;5726;42.160;24.746;2022-10-23T05:07:24;16.13;;;8.60;;
11342;SDS011;5726;42.160;24.746;2022-10-23T05:09:50;25.90;;;15.23;;
11342;SDS011;5726;42.160;24.746;2022-10-23T05:12:15;28.07;;;15.27;;
11342;SDS011;5726;42.160;24.746;2022-10-23T05:14:41;11.93;;;6.87;;
11342;SDS011;5726;42.160;24.746;2022-10-23T05:17:53;12.73;;;6.83;;
11342;SDS011;5726;42.160;24.746;2022-10-23T05:20:00;15.60;;;7.00;;
11342;SDS011;5726;42.160;24.746;2022-10-23T05:22:29;15.93;;;6.90;;
11342;SDS011;5726;42.160;24.746;2022-10-23T05:24:57;15.67;;;6.97;;
11342;SDS011;5726;42.160;24.746;2022-10-23T05:27:25;12.10;;;6.90;;
11342;SDS011;5726;42.160;24.746;2022-10-23T05:29:51;14.93;;;6.47;;
11342;SDS011;5726;42.160;24.746;2022-10-23T05:32:16;18.90;;;6.80;;
11342;SDS011;5726;42.160;24.746;2022-10-23T05:34:42;14.50;;;6.70;;
11342;SDS011;5726;42.160;24.746;2022-10-23T05:37:08;14.87;;;6.63;;
11342;SDS011;5726;42.160;24.746;2022-10-23T05:39:36;13.10;;;5.77;;
11342;SDS011;5726;42.160;24.746;2022-10-23T05:42:01;16.73;;;6.10;;
11342;SDS011;5726;42.160;24.746;2022-10-23T05:44:27;31.73;;;17.70;;
11342;SDS011;5726;42.160;24.746;2022-10-23T05:46:52;37.07;;;22.30;;
11342;SDS011;5726;42.160;24.746;2022-10-23T05:49:18;36.57;;;25.20;;
11342;SDS011;5726;42.160;24.746;2022-10-23T05:51:43;29.27;;;13.37;;
11342;SDS011;5726;42.160;24.746;2022-10-23T05:54:09;15.87;;;5.60;;
11342;SDS011;5726;42.160;24.746;2022-10-23T05:56:34;14.37;;;5.23;;
11342;SDS011;5726;42.160;24.746;2022-10-23T05:59:01;14.87;;;5.33;;
11342;SDS011;5726;42.160;24.746;2022-10-23T06:01:26;15.27;;;5.60;;
11342;SDS011;5726;42.160;24.746;2022-10-23T06:03:52;9.60;;;5.13;;
11342;SDS011;5726;42.160;24.746;2022-10-23T06:06:17;11.63;;;5.90;;
11342;SDS011;5726;42.160;24.746;2022-10-23T06:08:43;11.27;;;6.27;;
11342;SDS011;5726;42.160;24.746;2022-10-23T06:11:09;17.13;;;5.50;;
11342;SDS011;5726;42.160;24.746;2022-10-23T06:13:36;11.87;;;5.30;;
11342;SDS011;5726;42.160;24.746;2022-10-23T06:16:15;10.60;;;5.13;;
11342;SDS011;5726;42.160;24.746;2022-10-23T06:18:43;13.93;;;5.60;;
11342;SDS011;5726;42.160;24.746;2022-10-23T06:21:10;10.77;;;6.07;;
11342;SDS011;5726;42.160;24.746;2022-10-23T06:23:36;9.63;;;5.63;;
11342;SDS011;5726;42.160;24.746;2022-10-23T06:26:03;12.90;;;5.00;;
11342;SDS011;5726;42.160;24.746;2022-10-23T06:28:29;11.37;;;5.17;;
11342;SDS011;5726;42.160;24.746;2022-10-23T06:30:55;11.27;;;5.00;;
11342;SDS011;5726;42.160;24.746;2022-10-23T06:33:20;11.70;;;5.90;;
11342;SDS011;5726;42.160;24.746;2022-10-23T06:35:46;13.20;;;5.38;;
11342;SDS011;5726;42.160;24.746;2022-10-23T06:38:11;12.02;;;5.82;;
11342;SDS011;5726;42.160;24.746;2022-10-23T06:40:37;14.17;;;5.40;;
11342;SDS011;5726;42.160;24.746;2022-10-23T06:43:03;10.73;;;5.90;;
11342;SDS011;5726;42.160;24.746;2022-10-23T06:45:29;19.27;;;5.95;;
11342;SDS011;5726;42.160;24.746;2022-10-23T06:47:58;18.67;;;8.85;;
11342;SDS011;5726;42.160;24.746;2022-10-23T06:50:24;24.43;;;15.70;;
11342;SDS011;5726;42.160;24.746;2022-10-23T06:52:50;20.87;;;9.97;;
11342;SDS011;5726;42.160;24.746;2022-10-23T06:55:16;19.50;;;7.60;;
11342;SDS011;5726;42.160;24.746;2022-10-23T06:57:42;10.47;;;5.87;;
11342;SDS011;5726;42.160;24.746;2022-10-23T07:00:08;15.17;;;6.70;;
11342;SDS011;5726;42.160;24.746;2022-10-23T07:02:34;10.83;;;6.43;;
11342;SDS011;5726;42.160;24.746;2022-10-23T07:04:59;16.97;;;8.40;;
11342;SDS011;5726;42.160;24.746;2022-10-23T07:07:25;15.70;;;7.47;;
11342;SDS011;5726;42.160;24.746;2022-10-23T07:09:50;18.27;;;6.27;;
11342;SDS011;5726;42.160;24.746;2022-10-23T07:12:16;15.27;;;7.27;;
11342;SDS011;5726;42.160;24.746;2022-10-23T07:14:41;17.30;;;7.13;;
11342;SDS011;5726;42.160;24.746;2022-10-23T07:17:07;12.77;;;6.25;;
11342;SDS011;5726;42.160;24.746;2022-10-23T07:19:32;13.15;;;7.45;;
11342;SDS011;5726;42.160;24.746;2022-10-23T07:21:57;14.40;;;6.80;;
11342;SDS011;5726;42.160;24.746;2022-10-23T07:24:23;13.73;;;7.53;;
11342;SDS011;5726;42.160;24.746;2022-10-23T07:26:48;17.45;;;8.35;;
11342;SDS011;5726;42.160;24.746;2022-10-23T07:29:14;19.37;;;10.20;;
11342;SDS011;5726;42.160;24.746;2022-10-23T07:31:39;29.67;;;11.30;;
11342;SDS011;5726;42.160;24.746;2022-10-23T07:34:05;20.50;;;8.68;;
11342;SDS011;5726;42.160;24.746;2022-10-23T07:36:30;17.08;;;7.38;;
11342;SDS011;5726;42.160;24.746;2022-10-23T07:38:56;16.90;;;6.63;;
11342;SDS011;5726;42.160;24.746;2022-10-23T07:41:22;14.50;;;6.27;;
11342;SDS011;5726;42.160;24.746;2022-10-23T07:43:47;13.15;;;6.10;;
11342;SDS011;5726;42.160;24.746;2022-10-23T07:46:13;14.52;;;6.20;;
11342;SDS011;5726;42.160;24.746;2022-10-23T07:48:38;13.15;;;6.78;;
11342;SDS011;5726;42.160;24.746;2022-10-23T07:51:05;22.50;;;7.77;;
11342;SDS011;5726;42.160;24.746;2022-10-23T07:53:32;26.02;;;18.27;;
11342;SDS011;5726;42.160;24.746;2022-10-23T07:56:00;22.23;;;9.70;;
11342;SDS011;5726;42.160;24.746;2022-10-23T07:58:27;13.98;;;5.63;;
11342;SDS011;5726;42.160;24.746;2022-10-23T08:00:58;13.68;;;5.50;;
11342;SDS011;5726;42.160;24.746;2022-10-23T08:03:29;12.95;;;5.43;;
11342;SDS011;5726;42.160;24.746;2022-10-23T08:05:57;21.13;;;5.00;;
11342;SDS011;5726;42.160;24.746;2022-10-23T08:08:23;12.38;;;4.63;;
11342;SDS011;5726;42.160;24.746;2022-10-23T08:10:52;11.18;;;5.05;;
11342;SDS011;5726;42.160;24.746;2022-10-23T08:13:19;26.08;;;5.97;;
11342;SDS011;5726;42.160;24.746;2022-10-23T08:15:46;14.98;;;4.75;;
11342;SDS011;5726;42.160;24.746;2022-10-23T08:18:12;18.38;;;5.20;;
11342;SDS011;5726;42.160;24.746;2022-10-23T08:20:39;16.80;;;4.90;;
11342;SDS011;5726;42.160;24.746;2022-10-23T08:23:05;16.38;;;5.15;;
11342;SDS011;5726;42.160;24.746;2022-10-23T08:25:31;11.23;;;4.32;;
11342;SDS011;5726;42.160;24.746;2022-10-23T08:27:57;29.60;;;5.55;;
11342;SDS011;5726;42.160;24.746;2022-10-23T08:30:22;15.80;;;4.78;;
11342;SDS011;5726;42.160;24.746;2022-10-23T08:32:48;18.70;;;5.43;;
11342;SDS011;5726;42.160;24.746;2022-10-23T08:35:14;11.52;;;3.90;;
11342;SDS011;5726;42.160;24.746;2022-10-23T08:37:39;18.50;;;4.70;;
11342;SDS011;5726;42.160;24.746;2022-10-23T08:40:05;15.57;;;4.28;;
11342;SDS011;5726;42.160;24.746;2022-10-23T08:42:32;9.65;;;4.32;;
11342;SDS011;5726;42.160;24.746;2022-10-23T08:47:35;13.50;;;4.18;;
11342;SDS011;5726;42.160;24.746;2022-10-23T08:50:19;15.63;;;4.45;;
11342;SDS011;5726;42.160;24.746;2022-10-23T08:53:31;11.80;;;3.72;;
11342;SDS011;5726;42.160;24.746;2022-10-23T08:56:06;14.75;;;3.78;;
11342;SDS011;5726;42.160;24.746;2022-10-23T08:58:47;18.08;;;3.83;;
11342;SDS011;5726;42.160;24.746;2022-10-23T09:01:35;14.75;;;3.67;;
11342;SDS011;5726;42.160;24.746;2022-10-23T09:04:04;10.93;;;3.20;;
11342;SDS011;5726;42.160;24.746;2022-10-23T09:12:35;9.38;;;3.60;;
11342;SDS011;5726;42.160;24.746;2022-10-23T09:22:31;7.97;;;2.95;;
11342;SDS011;5726;42.160;24.746;2022-10-23T09:24:56;5.75;;;2.83;;
11342;SDS011;5726;42.160;24.746;2022-10-23T09:27:22;7.80;;;3.25;;
11342;SDS011;5726;42.160;24.746;2022-10-23T09:29:48;11.23;;;2.53;;
11342;SDS011;5726;42.160;24.746;2022-10-23T09:32:16;6.35;;;2.60;;
11342;SDS011;5726;42.160;24.746;2022-10-23T09:34:49;10.63;;;2.65;;
11342;SDS011;5726;42.160;24.746;2022-10-23T09:37:22;9.05;;;2.42;;
11342;SDS011;5726;42.160;24.746;2022-10-23T09:40:00;3.78;;;2.25;;
11342;SDS011;5726;42.160;24.746;2022-10-23T09:42:27;10.40;;;2.70;;
11342;SDS011;5726;42.160;24.746;2022-10-23T09:44:52;4.18;;;2.15;;
11342;SDS011;5726;42.160;24.746;2022-10-23T09:47:20;5.50;;;2.35;;
11342;SDS011;5726;42.160;24.746;2022-10-23T09:49:49;12.10;;;3.38;;
11342;SDS011;5726;42.160;24.746;2022-10-23T09:54:46;12.85;;;5.28;;
11342;SDS011;5726;42.160;24.746;2022-10-23T10:02:39;8.88;;;5.22;;
11342;SDS011;5726;42.160;24.746;2022-10-23T10:05:18;11.07;;;4.22;;
11342;SDS011;5726;42.160;24.746;2022-10-23T10:10:54;9.38;;;4.65;;
11342;SDS011;5726;42.160;24.746;2022-10-23T10:16:15;8.35;;;3.45;;
11342;SDS011;5726;42.160;24.746;2022-10-23T10:19:01;9.43;;;3.65;;
11342;SDS011;5726;42.160;24.746;2022-10-23T10:21:40;7.80;;;4.53;;
11342;SDS011;5726;42.160;24.746;2022-10-23T10:40:33;5.13;;;2.35;;
11342;SDS011;5726;42.160;24.746;2022-10-23T10:51:30;6.20;;;3.38;;
11342;SDS011;5726;42.160;24.746;2022-10-23T10:56:40;6.82;;;2.97;;
11342;SDS011;5726;42.160;24.746;2022-10-23T10:59:13;6.18;;;3.40;;
11342;SDS011;5726;42.160;24.746;2022-10-23T11:01:41;8.85;;;5.80;;
11342;SDS011;5726;42.160;24.746;2022-10-23T11:04:33;17.63;;;11.18;;
11342;SDS011;5726;42.160;24.746;2022-10-23T11:07:06;4.53;;;2.13;;
11342;SDS011;5726;42.160;24.746;2022-10-23T11:09:37;3.72;;;2.75;;
11342;SDS011;5726;42.160;24.746;2022-10-23T11:12:05;4.63;;;2.38;;
11342;SDS011;5726;42.160;24.746;2022-10-23T11:14:31;5.22;;;2.63;;
11342;SDS011;5726;42.160;24.746;2022-10-23T11:17:07;3.08;;;2.30;;
11342;SDS011;5726;42.160;24.746;2022-10-23T11:19:51;3.40;;;2.65;;
11342;SDS011;5726;42.160;24.746;2022-10-23T11:22:34;5.03;;;2.55;;
11342;SDS011;5726;42.160;24.746;2022-10-23T11:39:28;7.78;;;4.88;;
11342;SDS011;5726;42.160;24.746;2022-10-23T11:47:05;5.22;;;2.53;;
11342;SDS011;5726;42.160;24.746;2022-10-23T11:49:49;3.40;;;2.00;;
11342;SDS011;5726;42.160;24.746;2022-10-23T11:52:22;7.15;;;2.83;;
11342;SDS011;5726;42.160;24.746;2022-10-23T11:55:34;5.53;;;3.10;;
11342;SDS011;5726;42.160;24.746;2022-10-23T12:00:29;2.83;;;2.05;;
11342;SDS011;5726;42.160;24.746;2022-10-23T12:02:56;3.70;;;2.33;;
11342;SDS011;5726;42.160;24.746;2022-10-23T12:07:58;6.13;;;2.55;;
11342;SDS011;5726;42.160;24.746;2022-10-23T12:10:25;7.20;;;2.70;;
11342;SDS011;5726;42.160;24.746;2022-10-23T12:12:59;7.32;;;5.10;;
11342;SDS011;5726;42.160;24.746;2022-10-23T12:15:30;11.52;;;7.07;;
11342;SDS011;5726;42.160;24.746;2022-10-23T12:20:57;6.78;;;3.22;;
11342;SDS011;5726;42.160;24.746;2022-10-23T12:29:20;5.13;;;2.95;;
11342;SDS011;5726;42.160;24.746;2022-10-23T12:34:56;6.00;;;3.60;;
11342;SDS011;5726;42.160;24.746;2022-10-23T12:39:58;3.70;;;2.58;;
11342;SDS011;5726;42.160;24.746;2022-10-23T12:42:26;5.82;;;2.50;;
11342;SDS011;5726;42.160;24.746;2022-10-23T12:44:59;3.33;;;2.65;;
11342;SDS011;5726;42.160;24.746;2022-10-23T12:47:27;6.47;;;4.13;;
11342;SDS011;5726;42.160;24.746;2022-10-23T12:49:54;6.45;;;2.28;;
11342;SDS011;5726;42.160;24.746;2022-10-23T12:52:19;4.80;;;2.25;;
11342;SDS011;5726;42.160;24.746;2022-10-23T12:54:46;7.57;;;4.80;;
11342;SDS011;5726;42.160;24.746;2022-10-23T12:57:25;6.22;;;3.38;;
11342;SDS011;5726;42.160;24.746;2022-10-23T12:59:59;4.28;;;2.28;;
11342;SDS011;5726;42.160;24.746;2022-10-23T13:02:30;2.50;;;1.90;;
11342;SDS011;5726;42.160;24.746;2022-10-23T13:04:57;4.55;;;2.40;;
11342;SDS011;5726;42.160;24.746;2022-10-23T13:07:27;5.35;;;2.70;;
11342;SDS011;5726;42.160;24.746;2022-10-23T13:09:55;6.50;;;4.00;;
11342;SDS011;5726;42.160;24.746;2022-10-23T13:12:26;5.95;;;2.38;;
11342;SDS011;5726;42.160;24.746;2022-10-23T13:15:01;4.40;;;2.60;;
11342;SDS011;5726;42.160;24.746;2022-10-23T13:17:59;4.82;;;2.45;;
11342;SDS011;5726;42.160;24.746;2022-10-23T13:20:31;4.25;;;1.95;;
11342;SDS011;5726;42.160;24.746;2022-10-23T13:25:28;7.13;;;2.60;;
11342;SDS011;5726;42.160;24.746;2022-10-23T13:28:03;4.70;;;2.80;;
11342;SDS011;5726;42.160;24.746;2022-10-23T13:30:41;3.95;;;2.38;;
11342;SDS011;5726;42.160;24.746;2022-10-23T13:35:53;3.15;;;2.05;;
11342;SDS011;5726;42.160;24.746;2022-10-23T13:38:40;3.65;;;2.40;;
11342;SDS011;5726;42.160;24.746;2022-10-23T13:41:11;4.32;;;2.72;;
11342;SDS011;5726;42.160;24.746;2022-10-23T13:43:42;5.65;;;2.83;;
11342;SDS011;5726;42.160;24.746;2022-10-23T13:46:15;7.80;;;3.30;;
11342;SDS011;5726;42.160;24.746;2022-10-23T13:48:42;3.13;;;2.20;;
11342;SDS011;5726;42.160;24.746;2022-10-23T13:51:12;4.72;;;2.67;;
11342;SDS011;5726;42.160;24.746;2022-10-23T13:53:40;2.80;;;2.20;;
11342;SDS011;5726;42.160;24.746;2022-10-23T13:56:06;5.65;;;2.10;;
11342;SDS011;5726;42.160;24.746;2022-10-23T13:58:33;3.78;;;2.40;;
11342;SDS011;5726;42.160;24.746;2022-10-23T14:00:59;5.20;;;2.13;;
11342;SDS011;5726;42.160;24.746;2022-10-23T14:03:24;5.88;;;2.40;;
11342;SDS011;5726;42.160;24.746;2022-10-23T14:05:50;6.55;;;2.40;;
11342;SDS011;5726;42.160;24.746;2022-10-23T14:08:16;4.38;;;2.08;;
11342;SDS011;5726;42.160;24.746;2022-10-23T14:10:41;4.97;;;2.22;;
11342;SDS011;5726;42.160;24.746;2022-10-23T14:13:07;5.45;;;2.53;;
11342;SDS011;5726;42.160;24.746;2022-10-23T14:15:32;3.90;;;2.40;;
11342;SDS011;5726;42.160;24.746;2022-10-23T14:17:58;4.28;;;2.70;;
11342;SDS011;5726;42.160;24.746;2022-10-23T14:20:23;4.47;;;2.45;;
11342;SDS011;5726;42.160;24.746;2022-10-23T14:22:49;5.00;;;2.70;;
11342;SDS011;5726;42.160;24.746;2022-10-23T14:25:14;5.18;;;2.10;;
11342;SDS011;5726;42.160;24.746;2022-10-23T14:27:40;3.35;;;2.38;;
11342;SDS011;5726;42.160;24.746;2022-10-23T14:30:06;5.43;;;2.40;;
11342;SDS011;5726;42.160;24.746;2022-10-23T14:32:32;6.88;;;3.00;;
11342;SDS011;5726;42.160;24.746;2022-10-23T14:34:57;13.05;;;10.10;;
11342;SDS011;5726;42.160;24.746;2022-10-23T14:37:23;10.13;;;6.35;;
11342;SDS011;5726;42.160;24.746;2022-10-23T14:39:48;3.85;;;2.30;;
11342;SDS011;5726;42.160;24.746;2022-10-23T14:42:14;5.05;;;2.13;;
11342;SDS011;5726;42.160;24.746;2022-10-23T14:44:39;3.40;;;2.20;;
11342;SDS011;5726;42.160;24.746;2022-10-23T14:47:05;3.92;;;2.67;;
11342;SDS011;5726;42.160;24.746;2022-10-23T14:49:30;5.68;;;2.75;;
11342;SDS011;5726;42.160;24.746;2022-10-23T14:51:57;7.00;;;4.43;;
11342;SDS011;5726;42.160;24.746;2022-10-23T14:54:22;8.07;;;4.40;;
11342;SDS011;5726;42.160;24.746;2022-10-23T14:56:48;6.45;;;3.67;;
11342;SDS011;5726;42.160;24.746;2022-10-23T14:59:13;5.63;;;2.80;;
11342;SDS011;5726;42.160;24.746;2022-10-23T15:01:42;7.75;;;3.63;;
11342;SDS011;5726;42.160;24.746;2022-10-23T15:04:09;8.75;;;4.18;;
11342;SDS011;5726;42.160;24.746;2022-10-23T15:06:35;10.48;;;3.75;;
11342;SDS011;5726;42.160;24.746;2022-10-23T15:09:02;8.38;;;3.25;;
11342;SDS011;5726;42.160;24.746;2022-10-23T15:11:28;7.22;;;5.25;;
11342;SDS011;5726;42.160;24.746;2022-10-23T15:13:54;7.57;;;3.28;;
11342;SDS011;5726;42.160;24.746;2022-10-23T15:16:20;5.40;;;3.28;;
11342;SDS011;5726;42.160;24.746;2022-10-23T15:18:46;5.97;;;2.85;;
11342;SDS011;5726;42.160;24.746;2022-10-23T15:21:12;7.40;;;3.28;;
11342;SDS011;5726;42.160;24.746;2022-10-23T15:23:39;9.73;;;3.20;;
11342;SDS011;5726;42.160;24.746;2022-10-23T15:26:07;6.32;;;3.25;;
11342;SDS011;5726;42.160;24.746;2022-10-23T15:28:35;6.35;;;3.05;;
11342;SDS011;5726;42.160;24.746;2022-10-23T15:31:01;10.20;;;8.50;;
11342;SDS011;5726;42.160;24.746;2022-10-23T15:33:27;17.70;;;10.85;;
11342;SDS011;5726;42.160;24.746;2022-10-23T15:35:52;9.00;;;5.20;;
11342;SDS011;5726;42.160;24.746;2022-10-23T15:38:18;4.20;;;2.55;;
11342;SDS011;5726;42.160;24.746;2022-10-23T15:40:44;7.22;;;2.72;;
11342;SDS011;5726;42.160;24.746;2022-10-23T15:43:13;11.10;;;3.22;;
11342;SDS011;5726;42.160;24.746;2022-10-23T15:45:39;7.05;;;3.15;;
11342;SDS011;5726;42.160;24.746;2022-10-23T15:48:05;11.18;;;5.07;;
11342;SDS011;5726;42.160;24.746;2022-10-23T15:50:32;11.45;;;5.93;;
11342;SDS011;5726;42.160;24.746;2022-10-23T15:52:58;8.50;;;5.50;;
11342;SDS011;5726;42.160;24.746;2022-10-23T15:55:23;12.15;;;4.15;;
11342;SDS011;5726;42.160;24.746;2022-10-23T15:57:49;4.53;;;3.22;;
11342;SDS011;5726;42.160;24.746;2022-10-23T16:00:15;6.13;;;4.78;;
11342;SDS011;5726;42.160;24.746;2022-10-23T16:02:41;9.35;;;4.90;;
11342;SDS011;5726;42.160;24.746;2022-10-23T16:05:06;5.00;;;3.92;;
11342;SDS011;5726;42.160;24.746;2022-10-23T16:07:32;11.52;;;4.60;;
11342;SDS011;5726;42.160;24.746;2022-10-23T16:09:58;4.00;;;2.78;;
11342;SDS011;5726;42.160;24.746;2022-10-23T16:12:23;9.23;;;3.80;;
11342;SDS011;5726;42.160;24.746;2022-10-23T16:14:49;9.20;;;4.70;;
11342;SDS011;5726;42.160;24.746;2022-10-23T16:17:15;17.23;;;4.95;;
11342;SDS011;5726;42.160;24.746;2022-10-23T16:19:42;7.35;;;3.97;;
11342;SDS011;5726;42.160;24.746;2022-10-23T16:22:08;18.42;;;13.98;;
11342;SDS011;5726;42.160;24.746;2022-10-23T16:24:33;7.97;;;3.60;;
11342;SDS011;5726;42.160;24.746;2022-10-23T16:26:59;9.88;;;6.85;;
11342;SDS011;5726;42.160;24.746;2022-10-23T16:29:25;5.35;;;2.28;;
11342;SDS011;5726;42.160;24.746;2022-10-23T16:31:53;5.35;;;2.53;;
11342;SDS011;5726;42.160;24.746;2022-10-23T16:34:20;5.22;;;2.58;;
11342;SDS011;5726;42.160;24.746;2022-10-23T16:36:46;3.70;;;2.53;;
11342;SDS011;5726;42.160;24.746;2022-10-23T16:39:13;6.50;;;3.08;;
11342;SDS011;5726;42.160;24.746;2022-10-23T16:41:41;6.10;;;2.72;;
11342;SDS011;5726;42.160;24.746;2022-10-23T16:44:06;4.63;;;2.50;;
11342;SDS011;5726;42.160;24.746;2022-10-23T16:46:31;3.78;;;2.33;;
11342;SDS011;5726;42.160;24.746;2022-10-23T16:48:59;4.75;;;2.67;;
11342;SDS011;5726;42.160;24.746;2022-10-23T16:51:26;6.18;;;2.45;;
11342;SDS011;5726;42.160;24.746;2022-10-23T16:53:53;5.97;;;2.50;;
11342;SDS011;5726;42.160;24.746;2022-10-23T16:56:20;5.47;;;2.60;;
11342;SDS011;5726;42.160;24.746;2022-10-23T16:58:47;4.65;;;2.58;;
11342;SDS011;5726;42.160;24.746;2022-10-23T17:01:14;4.85;;;2.63;;
11342;SDS011;5726;42.160;24.746;2022-10-23T17:03:43;2.75;;;2.40;;
11342;SDS011;5726;42.160;24.746;2022-10-23T17:06:12;5.15;;;2.55;;